sensor_id;sensor_type;location;lat;lon;timestamp;temperature;humidity
37658;DHT22;23500;53.268;8.308;2023-01-09T00:01:31;15.30;77.20
37658;DHT22;23500;53.268;8.308;2023-01-09T00:03:58;15.30;77.00
37658;DHT22;23500;53.268;8.308;2023-01-09T00:06:24;15.30;77.40
37658;DHT22;23500;53.268;8.308;2023-01-09T00:08:50;15.30;77.00
37658;DHT22;23500;53.268;8.308;2023-01-09T00:11:16;15.30;77.10
37658;DHT22;23500;53.268;8.308;2023-01-09T00:13:41;15.30;77.00
37658;DHT22;23500;53.268;8.308;2023-01-09T00:16:08;15.30;76.90
37658;DHT22;23500;53.268;8.308;2023-01-09T00:18:34;15.30;77.20
37658;DHT22;23500;53.268;8.308;2023-01-09T00:21:02;15.30;77.00
37658;DHT22;23500;53.268;8.308;2023-01-09T00:23:28;15.30;77.10
37658;DHT22;23500;53.268;8.308;2023-01-09T00:26:14;15.20;77.10
37658;DHT22;23500;53.268;8.308;2023-01-09T00:28:42;15.20;78.40
37658;DHT22;23500;53.268;8.308;2023-01-09T00:31:09;15.20;76.60
37658;DHT22;23500;53.268;8.308;2023-01-09T00:33:39;15.20;77.00
37658;DHT22;23500;53.268;8.308;2023-01-09T00:36:05;15.20;77.20
37658;DHT22;23500;53.268;8.308;2023-01-09T00:38:31;15.20;77.30
37658;DHT22;23500;53.268;8.308;2023-01-09T00:40:57;15.20;77.60
37658;DHT22;23500;53.268;8.308;2023-01-09T00:43:29;15.20;77.70
37658;DHT22;23500;53.268;8.308;2023-01-09T00:45:56;15.20;77.90
37658;DHT22;23500;53.268;8.308;2023-01-09T00:48:23;15.20;77.70
37658;DHT22;23500;53.268;8.308;2023-01-09T00:50:52;15.20;77.20
37658;DHT22;23500;53.268;8.308;2023-01-09T00:53:21;15.20;77.60
37658;DHT22;23500;53.268;8.308;2023-01-09T00:55:48;15.20;77.70
37658;DHT22;23500;53.268;8.308;2023-01-09T00:58:13;15.20;78.10
37658;DHT22;23500;53.268;8.308;2023-01-09T01:00:39;15.10;78.00
37658;DHT22;23500;53.268;8.308;2023-01-09T01:03:05;15.10;78.00
37658;DHT22;23500;53.268;8.308;2023-01-09T01:05:31;15.10;78.00
37658;DHT22;23500;53.268;8.308;2023-01-09T01:08:17;15.10;78.20
37658;DHT22;23500;53.268;8.308;2023-01-09T01:10:43;15.10;78.40
37658;DHT22;23500;53.268;8.308;2023-01-09T01:13:10;15.10;78.70
37658;DHT22;23500;53.268;8.308;2023-01-09T01:15:40;15.10;78.70
37658;DHT22;23500;53.268;8.308;2023-01-09T01:18:06;15.10;79.00
37658;DHT22;23500;53.268;8.308;2023-01-09T01:20:32;15.20;78.90
37658;DHT22;23500;53.268;8.308;2023-01-09T01:22:58;15.10;78.70
37658;DHT22;23500;53.268;8.308;2023-01-09T01:25:23;15.20;79.00
37658;DHT22;23500;53.268;8.308;2023-01-09T01:27:49;15.10;78.90
37658;DHT22;23500;53.268;8.308;2023-01-09T01:30:16;15.10;78.90
37658;DHT22;23500;53.268;8.308;2023-01-09T01:32:43;15.10;78.90
37658;DHT22;23500;53.268;8.308;2023-01-09T01:35:09;15.10;78.80
37658;DHT22;23500;53.268;8.308;2023-01-09T01:37:36;15.10;78.90
37658;DHT22;23500;53.268;8.308;2023-01-09T01:40:03;15.10;78.90
37658;DHT22;23500;53.268;8.308;2023-01-09T01:42:29;15.10;79.10
37658;DHT22;23500;53.268;8.308;2023-01-09T01:50:42;15.10;79.60
37658;DHT22;23500;53.268;8.308;2023-01-09T01:53:28;15.10;79.80
37658;DHT22;23500;53.268;8.308;2023-01-09T01:58:33;15.10;79.80
37658;DHT22;23500;53.268;8.308;2023-01-09T02:01:01;15.10;79.60
37658;DHT22;23500;53.268;8.308;2023-01-09T02:03:28;15.10;79.70
37658;DHT22;23500;53.268;8.308;2023-01-09T02:05:53;15.10;80.10
37658;DHT22;23500;53.268;8.308;2023-01-09T02:08:20;15.10;80.20
37658;DHT22;23500;53.268;8.308;2023-01-09T02:10:46;15.10;80.50
37658;DHT22;23500;53.268;8.308;2023-01-09T02:13:12;15.10;80.40
37658;DHT22;23500;53.268;8.308;2023-01-09T02:18:25;15.10;80.70
37658;DHT22;23500;53.268;8.308;2023-01-09T02:21:25;15.10;80.70
37658;DHT22;23500;53.268;8.308;2023-01-09T02:24:34;15.10;80.60
37658;DHT22;23500;53.268;8.308;2023-01-09T02:27:12;15.10;80.70
37658;DHT22;23500;53.268;8.308;2023-01-09T02:35:37;15.10;81.20
37658;DHT22;23500;53.268;8.308;2023-01-09T02:41:03;15.10;81.20
37658;DHT22;23500;53.268;8.308;2023-01-09T02:43:31;15.10;81.20
37658;DHT22;23500;53.268;8.308;2023-01-09T02:45:57;15.10;81.30
37658;DHT22;23500;53.268;8.308;2023-01-09T02:48:23;15.10;81.20
37658;DHT22;23500;53.268;8.308;2023-01-09T02:51:06;15.10;81.20
37658;DHT22;23500;53.268;8.308;2023-01-09T02:53:45;15.10;81.20
37658;DHT22;23500;53.268;8.308;2023-01-09T02:59:09;15.10;81.10
37658;DHT22;23500;53.268;8.308;2023-01-09T03:07:35;15.20;81.00
37658;DHT22;23500;53.268;8.308;2023-01-09T03:10:44;15.10;81.00
37658;DHT22;23500;53.268;8.308;2023-01-09T03:13:08;15.10;81.30
37658;DHT22;23500;53.268;8.308;2023-01-09T03:15:37;15.10;81.00
37658;DHT22;23500;53.268;8.308;2023-01-09T03:18:05;15.10;81.00
37658;DHT22;23500;53.268;8.308;2023-01-09T03:20:32;15.10;80.90
37658;DHT22;23500;53.268;8.308;2023-01-09T03:23:01;15.10;80.90
37658;DHT22;23500;53.268;8.308;2023-01-09T03:25:29;15.10;81.10
37658;DHT22;23500;53.268;8.308;2023-01-09T03:28:04;15.10;81.10
37658;DHT22;23500;53.268;8.308;2023-01-09T03:30:31;15.10;81.40
37658;DHT22;23500;53.268;8.308;2023-01-09T03:32:57;15.10;81.70
37658;DHT22;23500;53.268;8.308;2023-01-09T03:35:23;15.10;81.90
37658;DHT22;23500;53.268;8.308;2023-01-09T03:37:49;15.10;81.50
37658;DHT22;23500;53.268;8.308;2023-01-09T03:40:17;15.10;81.20
37658;DHT22;23500;53.268;8.308;2023-01-09T03:42:42;15.10;80.80
37658;DHT22;23500;53.268;8.308;2023-01-09T03:45:08;15.10;80.60
37658;DHT22;23500;53.268;8.308;2023-01-09T03:47:34;15.10;80.80
37658;DHT22;23500;53.268;8.308;2023-01-09T03:50:00;15.10;80.70
37658;DHT22;23500;53.268;8.308;2023-01-09T03:52:25;15.10;80.50
37658;DHT22;23500;53.268;8.308;2023-01-09T03:54:51;15.10;80.50
37658;DHT22;23500;53.268;8.308;2023-01-09T03:57:17;15.10;80.60
37658;DHT22;23500;53.268;8.308;2023-01-09T03:59:42;15.10;80.70
37658;DHT22;23500;53.268;8.308;2023-01-09T04:02:08;15.10;80.80
37658;DHT22;23500;53.268;8.308;2023-01-09T04:04:34;15.10;80.70
37658;DHT22;23500;53.268;8.308;2023-01-09T04:06:59;15.10;80.70
37658;DHT22;23500;53.268;8.308;2023-01-09T04:09:25;15.10;80.90
37658;DHT22;23500;53.268;8.308;2023-01-09T04:11:51;15.10;80.70
37658;DHT22;23500;53.268;8.308;2023-01-09T04:14:16;15.10;80.80
37658;DHT22;23500;53.268;8.308;2023-01-09T04:16:42;15.10;80.70
37658;DHT22;23500;53.268;8.308;2023-01-09T04:19:08;15.10;80.80
37658;DHT22;23500;53.268;8.308;2023-01-09T04:21:33;15.10;80.90
37658;DHT22;23500;53.268;8.308;2023-01-09T04:23:59;15.10;80.80
37658;DHT22;23500;53.268;8.308;2023-01-09T04:26:25;15.10;80.80
37658;DHT22;23500;53.268;8.308;2023-01-09T04:28:50;15.10;80.90
37658;DHT22;23500;53.268;8.308;2023-01-09T04:31:16;15.10;80.70
37658;DHT22;23500;53.268;8.308;2023-01-09T04:33:42;15.10;80.80
37658;DHT22;23500;53.268;8.308;2023-01-09T04:36:07;15.10;80.90
37658;DHT22;23500;53.268;8.308;2023-01-09T04:38:33;15.10;80.70
37658;DHT22;23500;53.268;8.308;2023-01-09T04:40:59;15.10;80.70
37658;DHT22;23500;53.268;8.308;2023-01-09T04:43:24;15.10;80.80
37658;DHT22;23500;53.268;8.308;2023-01-09T04:45:50;15.10;80.70
37658;DHT22;23500;53.268;8.308;2023-01-09T04:48:16;15.10;80.80
37658;DHT22;23500;53.268;8.308;2023-01-09T04:50:41;15.10;80.90
37658;DHT22;23500;53.268;8.308;2023-01-09T04:53:07;15.10;81.00
37658;DHT22;23500;53.268;8.308;2023-01-09T04:55:33;15.10;81.00
37658;DHT22;23500;53.268;8.308;2023-01-09T04:57:59;15.10;81.30
37658;DHT22;23500;53.268;8.308;2023-01-09T05:00:24;15.10;81.70
37658;DHT22;23500;53.268;8.308;2023-01-09T05:02:50;15.10;82.40
37658;DHT22;23500;53.268;8.308;2023-01-09T05:05:16;15.10;81.60
37658;DHT22;23500;53.268;8.308;2023-01-09T05:07:41;15.10;81.40
37658;DHT22;23500;53.268;8.308;2023-01-09T05:10:08;15.10;81.40
37658;DHT22;23500;53.268;8.308;2023-01-09T05:12:34;15.10;81.20
37658;DHT22;23500;53.268;8.308;2023-01-09T05:15:04;15.20;81.30
37658;DHT22;23500;53.268;8.308;2023-01-09T05:17:29;15.30;81.60
37658;DHT22;23500;53.268;8.308;2023-01-09T05:19:55;15.40;81.20
37658;DHT22;23500;53.268;8.308;2023-01-09T05:22:21;15.60;81.30
37658;DHT22;23500;53.268;8.308;2023-01-09T05:24:46;16.80;76.60
37658;DHT22;23500;53.268;8.308;2023-01-09T05:27:12;18.10;72.10
37658;DHT22;23500;53.268;8.308;2023-01-09T05:29:38;19.20;68.10
37658;DHT22;23500;53.268;8.308;2023-01-09T05:32:03;20.10;64.80
37658;DHT22;23500;53.268;8.308;2023-01-09T05:34:29;20.80;62.30
37658;DHT22;23500;53.268;8.308;2023-01-09T05:36:55;21.40;60.50
37658;DHT22;23500;53.268;8.308;2023-01-09T05:39:21;21.80;59.10
37658;DHT22;23500;53.268;8.308;2023-01-09T05:41:46;22.10;58.10
37658;DHT22;23500;53.268;8.308;2023-01-09T05:44:12;22.30;57.60
37658;DHT22;23500;53.268;8.308;2023-01-09T05:46:38;22.40;57.40
37658;DHT22;23500;53.268;8.308;2023-01-09T05:49:03;22.30;57.50
37658;DHT22;23500;53.268;8.308;2023-01-09T05:51:29;22.20;57.70
37658;DHT22;23500;53.268;8.308;2023-01-09T05:53:57;22.00;58.00
37658;DHT22;23500;53.268;8.308;2023-01-09T05:56:22;21.90;58.30
37658;DHT22;23500;53.268;8.308;2023-01-09T05:58:48;21.70;58.70
37658;DHT22;23500;53.268;8.308;2023-01-09T06:01:14;21.50;59.40
37658;DHT22;23500;53.268;8.308;2023-01-09T06:03:40;21.20;59.90
37658;DHT22;23500;53.268;8.308;2023-01-09T06:06:06;21.00;60.70
37658;DHT22;23500;53.268;8.308;2023-01-09T06:08:31;20.80;61.60
37658;DHT22;23500;53.268;8.308;2023-01-09T06:10:57;20.50;62.50
37658;DHT22;23500;53.268;8.308;2023-01-09T06:13:23;20.20;63.30
37658;DHT22;23500;53.268;8.308;2023-01-09T06:15:48;20.00;64.10
37658;DHT22;23500;53.268;8.308;2023-01-09T06:18:14;19.80;64.90
37658;DHT22;23500;53.268;8.308;2023-01-09T06:20:40;19.50;65.60
37658;DHT22;23500;53.268;8.308;2023-01-09T06:23:06;19.30;66.30
37658;DHT22;23500;53.268;8.308;2023-01-09T06:25:31;19.10;67.00
37658;DHT22;23500;53.268;8.308;2023-01-09T06:27:57;18.90;67.70
37658;DHT22;23500;53.268;8.308;2023-01-09T06:30:22;18.70;68.40
37658;DHT22;23500;53.268;8.308;2023-01-09T06:32:48;18.50;69.10
37658;DHT22;23500;53.268;8.308;2023-01-09T06:35:15;18.30;69.80
37658;DHT22;23500;53.268;8.308;2023-01-09T06:37:48;18.10;70.40
37658;DHT22;23500;53.268;8.308;2023-01-09T06:40:15;18.00;71.10
37658;DHT22;23500;53.268;8.308;2023-01-09T06:42:44;17.80;71.60
37658;DHT22;23500;53.268;8.308;2023-01-09T06:45:11;17.70;72.20
37658;DHT22;23500;53.268;8.308;2023-01-09T06:47:37;17.60;72.70
37658;DHT22;23500;53.268;8.308;2023-01-09T06:50:04;17.50;73.20
37658;DHT22;23500;53.268;8.308;2023-01-09T06:52:29;17.30;73.60
37658;DHT22;23500;53.268;8.308;2023-01-09T06:54:55;17.30;74.00
37658;DHT22;23500;53.268;8.308;2023-01-09T06:57:20;17.20;73.90
37658;DHT22;23500;53.268;8.308;2023-01-09T06:59:46;17.10;72.60
37658;DHT22;23500;53.268;8.308;2023-01-09T07:02:17;17.00;73.10
37658;DHT22;23500;53.268;8.308;2023-01-09T07:04:43;17.00;74.20
37658;DHT22;23500;53.268;8.308;2023-01-09T07:07:09;16.90;73.60
37658;DHT22;23500;53.268;8.308;2023-01-09T07:09:35;16.80;73.30
37658;DHT22;23500;53.268;8.308;2023-01-09T07:12:00;16.80;73.60
37658;DHT22;23500;53.268;8.308;2023-01-09T07:14:26;16.80;73.40
37658;DHT22;23500;53.268;8.308;2023-01-09T07:16:51;16.80;73.50
37658;DHT22;23500;53.268;8.308;2023-01-09T07:19:17;16.80;73.60
37658;DHT22;23500;53.268;8.308;2023-01-09T07:21:43;16.80;73.10
37658;DHT22;23500;53.268;8.308;2023-01-09T07:24:08;16.80;73.30
37658;DHT22;23500;53.268;8.308;2023-01-09T07:26:34;16.90;73.00
37658;DHT22;23500;53.268;8.308;2023-01-09T07:29:00;16.90;72.80
37658;DHT22;23500;53.268;8.308;2023-01-09T07:31:25;16.80;72.30
37658;DHT22;23500;53.268;8.308;2023-01-09T07:33:51;16.80;73.10
37658;DHT22;23500;53.268;8.308;2023-01-09T07:36:17;16.80;73.60
37658;DHT22;23500;53.268;8.308;2023-01-09T07:38:42;16.80;74.70
37658;DHT22;23500;53.268;8.308;2023-01-09T07:41:08;16.80;75.40
37658;DHT22;23500;53.268;8.308;2023-01-09T07:43:34;16.70;75.70
37658;DHT22;23500;53.268;8.308;2023-01-09T07:46:00;16.70;75.70
37658;DHT22;23500;53.268;8.308;2023-01-09T07:48:25;16.70;76.00
37658;DHT22;23500;53.268;8.308;2023-01-09T07:50:51;16.60;76.00
37658;DHT22;23500;53.268;8.308;2023-01-09T07:53:17;16.60;76.30
37658;DHT22;23500;53.268;8.308;2023-01-09T07:55:42;16.60;76.50
37658;DHT22;23500;53.268;8.308;2023-01-09T07:58:08;16.60;76.30
37658;DHT22;23500;53.268;8.308;2023-01-09T08:00:34;16.60;76.70
37658;DHT22;23500;53.268;8.308;2023-01-09T08:03:00;16.50;76.70
37658;DHT22;23500;53.268;8.308;2023-01-09T08:05:25;16.50;76.90
37658;DHT22;23500;53.268;8.308;2023-01-09T08:07:51;16.50;76.90
37658;DHT22;23500;53.268;8.308;2023-01-09T08:10:17;16.40;76.80
37658;DHT22;23500;53.268;8.308;2023-01-09T08:12:47;16.40;77.00
37658;DHT22;23500;53.268;8.308;2023-01-09T08:15:13;16.40;77.50
37658;DHT22;23500;53.268;8.308;2023-01-09T08:17:41;16.40;77.60
37658;DHT22;23500;53.268;8.308;2023-01-09T08:20:08;16.40;77.70
37658;DHT22;23500;53.268;8.308;2023-01-09T08:22:35;16.40;77.80
37658;DHT22;23500;53.268;8.308;2023-01-09T08:25:01;16.40;77.70
37658;DHT22;23500;53.268;8.308;2023-01-09T08:27:26;16.40;77.60
37658;DHT22;23500;53.268;8.308;2023-01-09T08:29:52;16.50;77.60
37658;DHT22;23500;53.268;8.308;2023-01-09T08:32:18;16.50;77.30
37658;DHT22;23500;53.268;8.308;2023-01-09T08:34:43;16.60;77.20
37658;DHT22;23500;53.268;8.308;2023-01-09T08:37:09;16.60;77.00
37658;DHT22;23500;53.268;8.308;2023-01-09T08:39:34;16.70;76.90
37658;DHT22;23500;53.268;8.308;2023-01-09T08:42:01;16.70;76.80
37658;DHT22;23500;53.268;8.308;2023-01-09T08:44:45;16.70;76.80
37658;DHT22;23500;53.268;8.308;2023-01-09T08:47:29;16.70;76.70
37658;DHT22;23500;53.268;8.308;2023-01-09T08:49:58;16.70;76.60
37658;DHT22;23500;53.268;8.308;2023-01-09T08:52:24;16.70;76.70
37658;DHT22;23500;53.268;8.308;2023-01-09T08:54:50;16.70;76.70
37658;DHT22;23500;53.268;8.308;2023-01-09T08:57:15;16.70;76.80
37658;DHT22;23500;53.268;8.308;2023-01-09T08:59:41;16.70;77.10
37658;DHT22;23500;53.268;8.308;2023-01-09T09:02:07;16.70;77.40
37658;DHT22;23500;53.268;8.308;2023-01-09T09:04:33;16.70;77.60
37658;DHT22;23500;53.268;8.308;2023-01-09T09:06:59;16.70;77.80
37658;DHT22;23500;53.268;8.308;2023-01-09T09:09:24;16.70;78.00
37658;DHT22;23500;53.268;8.308;2023-01-09T09:11:50;16.60;78.10
37658;DHT22;23500;53.268;8.308;2023-01-09T09:14:16;16.60;78.10
37658;DHT22;23500;53.268;8.308;2023-01-09T09:17:00;16.60;78.10
37658;DHT22;23500;53.268;8.308;2023-01-09T09:19:26;16.60;78.20
37658;DHT22;23500;53.268;8.308;2023-01-09T09:21:51;16.60;78.30
37658;DHT22;23500;53.268;8.308;2023-01-09T09:24:17;16.60;78.40
37658;DHT22;23500;53.268;8.308;2023-01-09T09:26:43;16.60;78.50
37658;DHT22;23500;53.268;8.308;2023-01-09T09:29:09;16.60;78.50
37658;DHT22;23500;53.268;8.308;2023-01-09T09:31:36;16.60;78.40
37658;DHT22;23500;53.268;8.308;2023-01-09T09:34:03;16.60;78.30
37658;DHT22;23500;53.268;8.308;2023-01-09T09:36:29;16.60;78.40
37658;DHT22;23500;53.268;8.308;2023-01-09T09:38:55;16.60;78.30
37658;DHT22;23500;53.268;8.308;2023-01-09T09:47:08;16.60;78.30
37658;DHT22;23500;53.268;8.308;2023-01-09T09:55:18;16.60;77.70
37658;DHT22;23500;53.268;8.308;2023-01-09T09:57:45;16.60;77.70
37658;DHT22;23500;53.268;8.308;2023-01-09T10:00:17;16.60;77.60
37658;DHT22;23500;53.268;8.308;2023-01-09T10:05:30;16.60;77.70
37658;DHT22;23500;53.268;8.308;2023-01-09T10:08:03;16.60;77.70
37658;DHT22;23500;53.268;8.308;2023-01-09T10:10:36;16.60;77.70
37658;DHT22;23500;53.268;8.308;2023-01-09T10:13:08;16.60;77.80
37658;DHT22;23500;53.268;8.308;2023-01-09T10:19:36;16.60;77.90
37658;DHT22;23500;53.268;8.308;2023-01-09T10:28:02;16.50;78.20
37658;DHT22;23500;53.268;8.308;2023-01-09T10:39:08;16.50;78.00
37658;DHT22;23500;53.268;8.308;2023-01-09T10:41:48;16.50;77.80
37658;DHT22;23500;53.268;8.308;2023-01-09T10:44:34;16.50;78.00
37658;DHT22;23500;53.268;8.308;2023-01-09T10:47:21;16.50;78.10
37658;DHT22;23500;53.268;8.308;2023-01-09T10:49:48;16.50;78.20
37658;DHT22;23500;53.268;8.308;2023-01-09T10:52:18;16.50;78.00
37658;DHT22;23500;53.268;8.308;2023-01-09T10:54:55;16.50;77.80
37658;DHT22;23500;53.268;8.308;2023-01-09T10:57:41;16.50;77.80
37658;DHT22;23500;53.268;8.308;2023-01-09T11:00:21;16.50;77.70
37658;DHT22;23500;53.268;8.308;2023-01-09T11:02:47;16.60;77.50
37658;DHT22;23500;53.268;8.308;2023-01-09T11:05:19;16.60;77.20
37658;DHT22;23500;53.268;8.308;2023-01-09T11:10:58;16.60;77.50
37658;DHT22;23500;53.268;8.308;2023-01-09T11:13:27;16.60;77.70
37658;DHT22;23500;53.268;8.308;2023-01-09T11:18:33;16.60;78.20
37658;DHT22;23500;53.268;8.308;2023-01-09T11:23:50;16.60;78.10
37658;DHT22;23500;53.268;8.308;2023-01-09T11:26:27;16.60;77.80
37658;DHT22;23500;53.268;8.308;2023-01-09T11:29:08;16.60;78.10
37658;DHT22;23500;53.268;8.308;2023-01-09T11:31:34;16.60;78.20
37658;DHT22;23500;53.268;8.308;2023-01-09T11:34:00;16.60;78.00
37658;DHT22;23500;53.268;8.308;2023-01-09T11:36:26;16.60;77.90
37658;DHT22;23500;53.268;8.308;2023-01-09T11:38:56;16.60;78.00
37658;DHT22;23500;53.268;8.308;2023-01-09T11:41:32;16.60;78.00
37658;DHT22;23500;53.268;8.308;2023-01-09T11:43:59;16.60;78.50
37658;DHT22;23500;53.268;8.308;2023-01-09T11:48:56;16.60;77.90
37658;DHT22;23500;53.268;8.308;2023-01-09T11:51:30;16.60;77.70
37658;DHT22;23500;53.268;8.308;2023-01-09T11:56:41;16.60;78.10
37658;DHT22;23500;53.268;8.308;2023-01-09T11:59:09;16.60;77.90
37658;DHT22;23500;53.268;8.308;2023-01-09T12:09:53;16.70;77.80
37658;DHT22;23500;53.268;8.308;2023-01-09T12:12:47;16.70;77.80
37658;DHT22;23500;53.268;8.308;2023-01-09T12:23:08;16.70;77.50
37658;DHT22;23500;53.268;8.308;2023-01-09T12:28:43;16.70;77.10
37658;DHT22;23500;53.268;8.308;2023-01-09T12:34:18;16.70;77.40
37658;DHT22;23500;53.268;8.308;2023-01-09T12:37:08;16.70;77.10
37658;DHT22;23500;53.268;8.308;2023-01-09T12:39:49;16.70;77.10
37658;DHT22;23500;53.268;8.308;2023-01-09T12:45:45;16.60;77.70
37658;DHT22;23500;53.268;8.308;2023-01-09T12:51:46;16.50;77.60
37658;DHT22;23500;53.268;8.308;2023-01-09T12:54:34;16.50;77.40
37658;DHT22;23500;53.268;8.308;2023-01-09T12:59:46;16.50;77.60
37658;DHT22;23500;53.268;8.308;2023-01-09T13:05:00;16.50;77.20
37658;DHT22;23500;53.268;8.308;2023-01-09T13:07:33;16.50;77.20
37658;DHT22;23500;53.268;8.308;2023-01-09T13:12:59;16.60;77.20
37658;DHT22;23500;53.268;8.308;2023-01-09T13:15:37;16.60;76.80
37658;DHT22;23500;53.268;8.308;2023-01-09T13:20:51;16.70;76.60
37658;DHT22;23500;53.268;8.308;2023-01-09T13:25:59;16.80;76.40
37658;DHT22;23500;53.268;8.308;2023-01-09T13:28:31;16.80;76.20
37658;DHT22;23500;53.268;8.308;2023-01-09T13:31:17;16.80;76.00
37658;DHT22;23500;53.268;8.308;2023-01-09T13:33:54;16.80;75.70
37658;DHT22;23500;53.268;8.308;2023-01-09T13:36:32;16.80;75.70
37658;DHT22;23500;53.268;8.308;2023-01-09T13:39:00;16.80;75.70
37658;DHT22;23500;53.268;8.308;2023-01-09T13:41:28;16.80;75.70
37658;DHT22;23500;53.268;8.308;2023-01-09T13:44:24;16.80;75.80
37658;DHT22;23500;53.268;8.308;2023-01-09T13:47:01;16.70;76.70
37658;DHT22;23500;53.268;8.308;2023-01-09T13:57:38;16.60;76.30
37658;DHT22;23500;53.268;8.308;2023-01-09T14:07:50;16.60;76.70
37658;DHT22;23500;53.268;8.308;2023-01-09T14:10:25;16.60;76.60
37658;DHT22;23500;53.268;8.308;2023-01-09T14:12:54;16.60;76.80
37658;DHT22;23500;53.268;8.308;2023-01-09T14:18:03;16.60;76.80
37658;DHT22;23500;53.268;8.308;2023-01-09T14:20:38;16.60;76.40
37658;DHT22;23500;53.268;8.308;2023-01-09T14:23:06;16.70;76.50
37658;DHT22;23500;53.268;8.308;2023-01-09T14:25:32;16.70;76.20
37658;DHT22;23500;53.268;8.308;2023-01-09T14:41:10;16.90;73.20
37658;DHT22;23500;53.268;8.308;2023-01-09T14:43:53;16.80;73.10
37658;DHT22;23500;53.268;8.308;2023-01-09T14:46:22;16.80;73.10
37658;DHT22;23500;53.268;8.308;2023-01-09T14:51:37;16.80;74.00
37658;DHT22;23500;53.268;8.308;2023-01-09T14:56:54;16.70;74.40
37658;DHT22;23500;53.268;8.308;2023-01-09T14:59:20;16.70;74.20
37658;DHT22;23500;53.268;8.308;2023-01-09T15:01:48;16.70;73.90
37658;DHT22;23500;53.268;8.308;2023-01-09T15:06:47;16.60;74.20
37658;DHT22;23500;53.268;8.308;2023-01-09T15:11:56;16.60;74.30
37658;DHT22;23500;53.268;8.308;2023-01-09T15:14:31;16.50;74.20
37658;DHT22;23500;53.268;8.308;2023-01-09T15:16:59;16.50;74.80
37658;DHT22;23500;53.268;8.308;2023-01-09T15:19:26;16.50;76.40
37658;DHT22;23500;53.268;8.308;2023-01-09T15:22:04;16.50;75.50
37658;DHT22;23500;53.268;8.308;2023-01-09T15:24:32;16.50;75.60
37658;DHT22;23500;53.268;8.308;2023-01-09T15:27:10;16.60;75.70
37658;DHT22;23500;53.268;8.308;2023-01-09T15:29:36;16.60;76.00
37658;DHT22;23500;53.268;8.308;2023-01-09T15:32:12;16.60;75.80
37658;DHT22;23500;53.268;8.308;2023-01-09T15:34:43;16.60;75.90
37658;DHT22;23500;53.268;8.308;2023-01-09T15:39:44;16.70;76.10
37658;DHT22;23500;53.268;8.308;2023-01-09T15:42:25;16.70;75.10
37658;DHT22;23500;53.268;8.308;2023-01-09T15:45:41;16.80;75.20
37658;DHT22;23500;53.268;8.308;2023-01-09T15:50:40;16.80;73.70
37658;DHT22;23500;53.268;8.308;2023-01-09T15:53:18;16.80;73.80
37658;DHT22;23500;53.268;8.308;2023-01-09T15:55:44;16.80;74.30
37658;DHT22;23500;53.268;8.308;2023-01-09T15:58:31;16.80;74.40
37658;DHT22;23500;53.268;8.308;2023-01-09T16:03:27;16.70;74.30
37658;DHT22;23500;53.268;8.308;2023-01-09T16:05:59;16.70;74.30
37658;DHT22;23500;53.268;8.308;2023-01-09T16:08:41;16.70;74.80
37658;DHT22;23500;53.268;8.308;2023-01-09T16:11:24;16.60;75.00
37658;DHT22;23500;53.268;8.308;2023-01-09T16:13:52;16.60;75.00
37658;DHT22;23500;53.268;8.308;2023-01-09T16:16:29;16.60;75.20
37658;DHT22;23500;53.268;8.308;2023-01-09T16:18:56;16.60;75.20
37658;DHT22;23500;53.268;8.308;2023-01-09T16:21:29;16.50;75.40
37658;DHT22;23500;53.268;8.308;2023-01-09T16:24:20;16.50;75.50
37658;DHT22;23500;53.268;8.308;2023-01-09T16:26:43;16.50;75.50
37658;DHT22;23500;53.268;8.308;2023-01-09T16:29:34;16.50;76.40
37658;DHT22;23500;53.268;8.308;2023-01-09T16:32:02;16.50;75.90
37658;DHT22;23500;53.268;8.308;2023-01-09T16:34:28;16.50;75.70
37658;DHT22;23500;53.268;8.308;2023-01-09T16:36:54;16.50;75.70
37658;DHT22;23500;53.268;8.308;2023-01-09T16:39:20;16.50;75.90
37658;DHT22;23500;53.268;8.308;2023-01-09T16:41:45;16.50;75.80
37658;DHT22;23500;53.268;8.308;2023-01-09T16:44:30;16.60;75.90
37658;DHT22;23500;53.268;8.308;2023-01-09T16:46:56;16.60;76.20
37658;DHT22;23500;53.268;8.308;2023-01-09T16:49:24;16.60;76.10
37658;DHT22;23500;53.268;8.308;2023-01-09T16:51:52;16.70;76.00
37658;DHT22;23500;53.268;8.308;2023-01-09T16:54:18;16.70;76.00
37658;DHT22;23500;53.268;8.308;2023-01-09T16:56:47;16.70;76.10
37658;DHT22;23500;53.268;8.308;2023-01-09T16:59:18;16.70;76.00
37658;DHT22;23500;53.268;8.308;2023-01-09T17:01:49;16.70;76.00
37658;DHT22;23500;53.268;8.308;2023-01-09T17:04:16;16.80;75.70
37658;DHT22;23500;53.268;8.308;2023-01-09T17:06:43;16.80;75.80
37658;DHT22;23500;53.268;8.308;2023-01-09T17:09:11;16.80;75.90
37658;DHT22;23500;53.268;8.308;2023-01-09T17:11:38;16.70;75.90
37658;DHT22;23500;53.268;8.308;2023-01-09T17:14:04;16.70;75.80
37658;DHT22;23500;53.268;8.308;2023-01-09T17:16:32;16.70;75.70
37658;DHT22;23500;53.268;8.308;2023-01-09T17:19:00;16.70;75.70
37658;DHT22;23500;53.268;8.308;2023-01-09T17:21:27;16.70;75.50
37658;DHT22;23500;53.268;8.308;2023-01-09T17:23:56;16.60;75.60
37658;DHT22;23500;53.268;8.308;2023-01-09T17:26:49;16.60;75.60
37658;DHT22;23500;53.268;8.308;2023-01-09T17:29:34;16.60;75.40
37658;DHT22;23500;53.268;8.308;2023-01-09T17:32:00;16.60;75.30
37658;DHT22;23500;53.268;8.308;2023-01-09T17:34:26;16.50;75.40
37658;DHT22;23500;53.268;8.308;2023-01-09T17:36:51;16.50;75.20
37658;DHT22;23500;53.268;8.308;2023-01-09T17:39:20;16.50;75.10
37658;DHT22;23500;53.268;8.308;2023-01-09T17:41:47;16.50;75.00
37658;DHT22;23500;53.268;8.308;2023-01-09T17:44:12;16.50;74.60
37658;DHT22;23500;53.268;8.308;2023-01-09T17:46:41;16.50;74.20
37658;DHT22;23500;53.268;8.308;2023-01-09T17:49:13;16.50;74.20
37658;DHT22;23500;53.268;8.308;2023-01-09T17:51:39;16.60;74.30
37658;DHT22;23500;53.268;8.308;2023-01-09T17:54:05;16.60;74.10
37658;DHT22;23500;53.268;8.308;2023-01-09T17:56:32;16.60;73.80
37658;DHT22;23500;53.268;8.308;2023-01-09T17:58:59;16.60;73.60
37658;DHT22;23500;53.268;8.308;2023-01-09T18:01:24;16.70;73.70
37658;DHT22;23500;53.268;8.308;2023-01-09T18:03:50;16.70;73.40
37658;DHT22;23500;53.268;8.308;2023-01-09T18:06:18;16.70;72.90
37658;DHT22;23500;53.268;8.308;2023-01-09T18:08:44;16.70;73.10
37658;DHT22;23500;53.268;8.308;2023-01-09T18:11:17;16.70;73.20
37658;DHT22;23500;53.268;8.308;2023-01-09T18:13:43;16.70;73.70
37658;DHT22;23500;53.268;8.308;2023-01-09T18:16:14;16.70;74.10
37658;DHT22;23500;53.268;8.308;2023-01-09T18:18:40;16.70;74.20
37658;DHT22;23500;53.268;8.308;2023-01-09T18:21:07;16.60;73.60
37658;DHT22;23500;53.268;8.308;2023-01-09T18:23:33;16.60;74.00
37658;DHT22;23500;53.268;8.308;2023-01-09T18:26:04;16.60;74.40
37658;DHT22;23500;53.268;8.308;2023-01-09T18:28:30;16.60;74.50
37658;DHT22;23500;53.268;8.308;2023-01-09T18:30:55;16.50;74.20